Time;durP1;ratioP1;P1;durP2;ratioP2;P2;SDS_P1;SDS_P2;PMS_P1;PMS_P2;Temp;Humidity;BMP_temperature;BMP_pressure;BME280_temperature;BME280_humidity;BME280_pressure;Samples;Min_cycle;Max_cycle;Signal;HPM_P1;HPM_P2
2021/01/19 00:02:19;;;;;;;;;;;;;;;-2.90;74.33;98315.06;1641025;85;24924;-87
2021/01/19 00:05:04;;;;;;;;;;;;;;;-2.84;74.40;98312.83;1638685;87;22150;-87
2021/01/19 00:07:50;;;;;;;;;;;;;;;-2.78;74.45;98312.25;1634651;87;26209;-88
2021/01/19 00:10:37;;;;;;;;;;;;;;;-2.74;74.52;98316.91;1642275;84;23824;-88
2021/01/19 00:13:23;;;;;;;;;;;;;;;-2.65;74.58;98308.59;1648534;85;20344;-88
2021/01/19 00:16:09;;;;;;;;;;;;;;;-2.60;74.64;98307.22;1642808;86;24869;-88
2021/01/19 00:18:55;;;;;;;;;;;;;;;-2.57;74.71;98305.47;1631313;85;21436;-88
2021/01/19 00:21:41;;;;;;;;;;;;;;;-2.57;74.74;98309.31;1663688;84;26296;-87
2021/01/19 00:24:31;;;;;;;;;;;;;;;-2.55;74.80;98311.38;1645764;85;25617;-88
2021/01/19 00:27:17;;;;;;;;;;;;;;;-2.50;74.83;98307.88;1659910;85;20290;-88
2021/01/19 00:30:02;;;;;;;;;;;;;;;-2.49;74.86;98289.08;1663289;84;24933;-87
2021/01/19 00:32:48;;;;;;;;;;;;;;;-2.47;74.93;98298.44;1663029;84;23131;-88
2021/01/19 00:35:34;;;;;;;;;;;;;;;-2.47;74.98;98297.59;1659619;84;26144;-88
2021/01/19 00:38:20;;;;;;;;;;;;;;;-2.46;75.05;98299.28;1645698;85;24622;-89
2021/01/19 00:41:06;;;;;;;;;;;;;;;-2.45;75.09;98303.07;1652139;85;20368;-90
2021/01/19 00:43:58;;;;;;;;;;;;;;;-2.43;75.17;98295.36;1664144;84;24427;-89
2021/01/19 00:46:45;;;;;;;;;;;;;;;-2.43;75.22;98292.36;1649492;85;22340;-90
2021/01/19 00:49:32;;;;;;;;;;;;;;;-2.41;75.29;98294.47;1655748;84;26134;-88
2021/01/19 00:52:19;;;;;;;;;;;;;;;-2.38;75.33;98289.70;1661376;84;24832;-88
2021/01/19 00:55:07;;;;;;;;;;;;;;;-2.36;75.40;98289.25;1644125;85;20654;-89
2021/01/19 00:57:53;;;;;;;;;;;;;;;-2.37;75.48;98287.12;1643700;85;25132;-88
2021/01/19 01:00:39;;;;;;;;;;;;;;;-2.36;75.54;98286.25;1636043;86;22145;-89
2021/01/19 01:03:29;;;;;;;;;;;;;;;-2.34;75.61;98282.34;1676316;84;25513;-89
2021/01/19 01:06:17;;;;;;;;;;;;;;;-2.32;75.66;98289.14;1664005;84;24020;-89
2021/01/19 01:09:03;;;;;;;;;;;;;;;-2.30;75.71;98281.00;1669909;84;20348;-88
2021/01/19 01:11:49;;;;;;;;;;;;;;;-2.28;75.78;98280.51;1684896;83;24989;-85
2021/01/19 01:14:35;;;;;;;;;;;;;;;-2.29;75.83;98267.28;1680313;84;22901;-89
2021/01/19 01:17:26;;;;;;;;;;;;;;;-2.25;75.88;98267.64;1696265;84;26080;-88
2021/01/19 01:20:12;;;;;;;;;;;;;;;-2.23;75.95;98267.59;1685675;84;25135;-88
2021/01/19 01:22:58;;;;;;;;;;;;;;;-2.24;76.01;98270.63;1695436;84;20399;-88
2021/01/19 01:25:45;;;;;;;;;;;;;;;-2.24;76.06;98265.50;1675634;83;25031;-88
2021/01/19 01:28:21;;;;;;;;;;;;;;;-2.22;76.14;98265.00;1680522;84;23277;-89
2021/01/19 01:31:07;;;;;;;;;;;;;;;-2.22;76.17;98262.44;1682093;84;27123;-88
2021/01/19 01:33:53;;;;;;;;;;;;;;;-2.18;76.23;98262.77;1681874;84;24739;-88
2021/01/19 01:36:39;;;;;;;;;;;;;;;-2.16;76.28;98253.34;1675930;84;20311;-88
2021/01/19 01:39:25;;;;;;;;;;;;;;;-2.15;76.34;98252.47;1688861;84;24919;-85
2021/01/19 01:42:11;;;;;;;;;;;;;;;-2.13;76.40;98249.88;1680683;84;22227;-85
2021/01/19 01:44:57;;;;;;;;;;;;;;;-2.11;76.46;98248.11;1683135;84;27273;-85
2021/01/19 01:47:43;;;;;;;;;;;;;;;-2.09;76.51;98250.64;1659984;84;24627;-88
2021/01/19 01:50:33;;;;;;;;;;;;;;;-2.08;76.57;98248.48;1682134;84;20437;-85
2021/01/19 01:53:20;;;;;;;;;;;;;;;-2.06;76.61;98251.84;1672320;84;24392;-85
2021/01/19 01:56:08;;;;;;;;;;;;;;;-2.06;76.68;98255.25;1678631;84;22172;-85
2021/01/19 01:58:54;;;;;;;;;;;;;;;-2.05;76.72;98252.25;1676008;84;26254;-85
2021/01/19 02:01:40;;;;;;;;;;;;;;;-2.04;76.80;98256.50;1674159;84;24544;-88
2021/01/19 02:04:26;;;;;;;;;;;;;;;-2.04;76.84;98253.94;1676053;84;20359;-89
2021/01/19 02:07:13;;;;;;;;;;;;;;;-2.04;76.90;98250.94;1675303;84;24828;-89
2021/01/19 02:09:59;;;;;;;;;;;;;;;-2.10;76.96;98239.54;1681879;84;22331;-89
2021/01/19 02:12:46;;;;;;;;;;;;;;;-2.00;77.01;98254.27;1657512;83;25897;-88
2021/01/19 02:15:32;;;;;;;;;;;;;;;-1.97;77.07;98258.06;1687637;83;24609;-89
2021/01/19 02:18:19;;;;;;;;;;;;;;;-1.94;77.13;98250.28;1687273;83;20280;-89
2021/01/19 02:21:05;;;;;;;;;;;;;;;-1.93;77.19;98245.13;1672790;83;24263;-89
2021/01/19 02:23:53;;;;;;;;;;;;;;;-1.89;77.25;98251.02;1683465;83;22178;-88
2021/01/19 02:26:39;;;;;;;;;;;;;;;-1.88;77.32;98256.56;1682421;83;27003;-88
2021/01/19 02:29:25;;;;;;;;;;;;;;;-1.86;77.38;98249.69;1682404;83;24729;-88
2021/01/19 02:32:11;;;;;;;;;;;;;;;-1.84;77.46;98248.75;1660522;83;20282;-88
2021/01/19 02:34:58;;;;;;;;;;;;;;;-1.80;77.50;98255.48;1680953;83;24928;-88
2021/01/19 02:37:34;;;;;;;;;;;;;;;-1.79;77.57;98244.80;1680514;83;23102;-88
2021/01/19 02:40:21;;;;;;;;;;;;;;;-1.76;77.62;98230.63;1681232;83;26215;-88
2021/01/19 02:43:07;;;;;;;;;;;;;;;-1.72;77.67;98236.93;1670719;83;24709;-88
2021/01/19 02:45:53;;;;;;;;;;;;;;;-1.68;77.74;98235.12;1687865;83;20527;-88
2021/01/19 02:48:38;;;;;;;;;;;;;;;-1.62;77.81;98227.72;1689167;83;24986;-89
2021/01/19 02:51:25;;;;;;;;;;;;;;;-1.56;77.88;98232.26;1694914;83;22099;-88
2021/01/19 02:54:11;;;;;;;;;;;;;;;-1.53;77.96;98229.64;1692676;83;26985;-88
2021/01/19 02:56:58;;;;;;;;;;;;;;;-1.50;78.01;98224.84;1681379;84;24648;-88
2021/01/19 02:59:44;;;;;;;;;;;;;;;-1.47;78.08;98224.32;1644546;86;20348;-88
2021/01/19 03:02:30;;;;;;;;;;;;;;;-1.44;78.17;98220.85;1663202;83;24827;-89
2021/01/19 03:05:16;;;;;;;;;;;;;;;-1.39;78.22;98216.44;1684013;83;22391;-88
2021/01/19 03:07:53;;;;;;;;;;;;;;;-1.35;78.29;98214.19;1681464;83;26300;-89
2021/01/19 03:10:39;;;;;;;;;;;;;;;-1.30;78.34;98209.34;1683133;83;24676;-88
2021/01/19 03:13:25;;;;;;;;;;;;;;;-1.26;78.43;98212.69;1680549;83;20287;-89
2021/01/19 03:16:15;;;;;;;;;;;;;;;-1.22;78.48;98210.87;1689336;83;24818;-89
2021/01/19 03:19:01;;;;;;;;;;;;;;;-1.17;78.54;98207.73;1677846;84;22241;-88
2021/01/19 03:21:47;;;;;;;;;;;;;;;-1.12;78.60;98207.17;1690971;83;26138;-85
2021/01/19 03:24:32;;;;;;;;;;;;;;;-1.07;78.66;98197.61;1667203;84;24634;-85
2021/01/19 03:27:18;;;;;;;;;;;;;;;-1.04;78.72;98194.98;1667913;83;20337;-85
2021/01/19 03:30:07;;;;;;;;;;;;;;;-1.03;78.77;98197.92;1645860;87;25036;-85
2021/01/19 03:32:55;;;;;;;;;;;;;;;-0.99;78.84;98198.27;1647609;87;22155;-88
2021/01/19 03:35:41;;;;;;;;;;;;;;;-0.97;78.90;98197.31;1689384;83;26197;-89
2021/01/19 03:38:27;;;;;;;;;;;;;;;-0.93;78.94;98190.39;1685115;83;25335;-89
2021/01/19 03:41:13;;;;;;;;;;;;;;;-0.90;78.99;98198.84;1689762;83;20486;-89
2021/01/19 03:43:59;;;;;;;;;;;;;;;-0.86;79.04;98197.02;1692957;83;24913;-89
2021/01/19 03:46:45;;;;;;;;;;;;;;;-0.86;79.09;98189.31;1687386;83;22314;-89
2021/01/19 03:49:33;;;;;;;;;;;;;;;-0.86;79.13;98190.16;1682068;83;26914;-89
2021/01/19 03:52:19;;;;;;;;;;;;;;;-0.82;79.19;98190.93;1675539;83;24796;-89
2021/01/19 03:55:05;;;;;;;;;;;;;;;-0.78;79.22;98192.52;1673510;84;20303;-89
2021/01/19 03:57:51;;;;;;;;;;;;;;;-0.77;79.26;98198.06;1686489;83;25653;-88
2021/01/19 04:00:37;;;;;;;;;;;;;;;-0.74;79.31;98204.83;1670126;83;23060;-88
2021/01/19 04:03:23;;;;;;;;;;;;;;;-0.73;79.34;98200.94;1669794;83;26106;-89
2021/01/19 04:06:12;;;;;;;;;;;;;;;-0.70;79.39;98197.42;1681043;83;24776;-88
2021/01/19 04:08:58;;;;;;;;;;;;;;;-0.70;79.41;98199.98;1690478;83;20276;-89
2021/01/19 04:11:44;;;;;;;;;;;;;;;-0.77;79.46;98189.52;1688207;83;24929;-89
2021/01/19 04:14:30;;;;;;;;;;;;;;;-0.68;79.51;98198.23;1673366;84;22153;-89
2021/01/19 04:17:16;;;;;;;;;;;;;;;-0.68;79.53;98192.65;1686882;84;26301;-88
2021/01/19 04:20:01;;;;;;;;;;;;;;;-0.64;79.56;98198.09;1678596;84;24616;-89
2021/01/19 04:22:48;;;;;;;;;;;;;;;-0.61;79.62;98196.73;1682057;84;20399;-89
2021/01/19 04:25:35;;;;;;;;;;;;;;;-0.60;79.64;98197.11;1682348;84;24880;-89
2021/01/19 04:28:23;;;;;;;;;;;;;;;-0.57;79.69;98189.33;1680997;84;22147;-89
2021/01/19 04:31:09;;;;;;;;;;;;;;;-0.55;79.72;98186.72;1684850;84;25519;-89
2021/01/19 04:33:56;;;;;;;;;;;;;;;-0.52;79.76;98189.19;1680604;84;24580;-89
2021/01/19 04:36:42;;;;;;;;;;;;;;;-0.47;79.81;98183.02;1683540;84;20287;-89
2021/01/19 04:39:33;;;;;;;;;;;;;;;-0.42;79.86;98188.02;1677050;84;24956;-88
2021/01/19 04:42:21;;;;;;;;;;;;;;;-0.37;79.92;98182.73;1675245;84;21723;-88
2021/01/19 04:45:09;;;;;;;;;;;;;;;-0.35;79.96;98189.97;1682250;84;26194;-89
2021/01/19 04:47:55;;;;;;;;;;;;;;;-0.30;80.01;98194.52;1682434;84;24565;-89
2021/01/19 04:50:41;;;;;;;;;;;;;;;-0.28;80.08;98194.89;1683664;84;20277;-88
2021/01/19 04:53:27;;;;;;;;;;;;;;;-0.26;80.12;98191.81;1682363;84;25608;-88
2021/01/19 04:56:13;;;;;;;;;;;;;;;-0.21;80.19;98196.80;1681750;83;22346;-85
2021/01/19 04:58:59;;;;;;;;;;;;;;;-0.19;80.24;98190.74;1678567;84;26183;-85
2021/01/19 05:01:45;;;;;;;;;;;;;;;-0.14;80.30;98199.59;1677342;84;24630;-85
2021/01/19 05:04:32;;;;;;;;;;;;;;;-0.11;80.36;98199.52;1672956;84;20276;-85
2021/01/19 05:07:20;;;;;;;;;;;;;;;-0.09;80.41;98197.28;1669465;84;25944;-84
2021/01/19 05:10:07;;;;;;;;;;;;;;;-0.06;80.46;98191.22;1674996;84;21989;-85
2021/01/19 05:12:54;;;;;;;;;;;;;;;-0.04;80.51;98191.55;1686109;83;26247;-89
2021/01/19 05:15:40;;;;;;;;;;;;;;;-0.02;80.54;98194.08;1680179;83;25519;-91
2021/01/19 05:18:26;;;;;;;;;;;;;;;-0.01;80.60;98191.91;1684302;83;20299;-89
2021/01/19 05:21:12;;;;;;;;;;;;;;;0.00;80.65;98194.41;1685526;83;25682;-88
2021/01/19 05:24:02;;;;;;;;;;;;;;;0.03;80.69;98194.77;1697705;83;22331;-88
2021/01/19 05:26:48;;;;;;;;;;;;;;;0.06;80.74;98197.67;1647081;85;25436;-88
2021/01/19 05:29:35;;;;;;;;;;;;;;;0.06;80.77;98192.53;1616313;87;25491;-88
2021/01/19 05:32:21;;;;;;;;;;;;;;;0.08;80.82;98190.32;1634192;86;20325;-89
2021/01/19 05:35:07;;;;;;;;;;;;;;;0.09;80.85;98194.58;1639309;86;24916;-89
2021/01/19 05:37:43;;;;;;;;;;;;;;;0.10;80.89;98191.56;1632512;86;22941;-90
2021/01/19 05:40:28;;;;;;;;;;;;;;;0.11;80.92;98190.68;1630978;86;26281;-89
2021/01/19 05:43:14;;;;;;;;;;;;;;;0.13;80.95;98186.31;1643856;85;24632;-89
2021/01/19 05:46:01;;;;;;;;;;;;;;;0.12;80.98;98198.33;1652527;86;20382;-89
2021/01/19 05:48:47;;;;;;;;;;;;;;;0.14;81.04;98188.00;1643610;86;25055;-89
2021/01/19 05:51:33;;;;;;;;;;;;;;;0.15;81.08;98190.53;1631205;88;23081;-89
2021/01/19 05:54:19;;;;;;;;;;;;;;;0.14;81.10;98196.56;1629943;86;26159;-89
2021/01/19 05:57:06;;;;;;;;;;;;;;;0.17;81.14;98194.31;1634464;86;24908;-89
2021/01/19 05:59:54;;;;;;;;;;;;;;;0.15;81.20;98193.55;1632046;86;20435;-89
2021/01/19 06:02:40;;;;;;;;;;;;;;;0.15;81.23;98192.26;1627987;86;25127;-89
2021/01/19 06:05:26;;;;;;;;;;;;;;;0.14;81.27;98192.70;1634887;86;23144;-89
2021/01/19 06:08:12;;;;;;;;;;;;;;;0.13;81.31;98201.75;1632105;86;26146;-89
2021/01/19 06:10:58;;;;;;;;;;;;;;;0.13;81.34;98186.31;1632675;86;24714;-89
2021/01/19 06:13:44;;;;;;;;;;;;;;;0.15;81.38;98192.26;1663791;84;20382;-89
2021/01/19 06:16:31;;;;;;;;;;;;;;;0.17;81.42;98188.73;1686391;84;24887;-88
2021/01/19 06:19:17;;;;;;;;;;;;;;;0.18;81.47;98190.41;1670747;84;22235;-89
2021/01/19 06:22:03;;;;;;;;;;;;;;;0.20;81.50;98191.66;1644502;86;25881;-89
2021/01/19 06:24:50;;;;;;;;;;;;;;;0.23;81.53;98191.11;1637481;86;24826;-88
2021/01/19 06:27:37;;;;;;;;;;;;;;;0.26;81.56;98185.03;1673613;84;20630;-89
2021/01/19 06:30:25;;;;;;;;;;;;;;;0.30;81.58;98196.45;1640018;85;25419;-89
2021/01/19 06:33:12;;;;;;;;;;;;;;;0.33;81.62;98201.49;1655803;85;22363;-88
2021/01/19 06:35:58;;;;;;;;;;;;;;;0.32;81.64;98199.83;1686843;84;26334;-88
2021/01/19 06:38:31;;;;;;;;;;;;;;;0.35;81.68;98203.58;1681888;84;25807;-88
2021/01/19 06:41:08;;;;;;;;;;;;;;;0.36;81.70;98196.27;1679915;84;20580;-88
2021/01/19 06:43:55;;;;;;;;;;;;;;;0.34;81.73;98199.77;1689426;84;25018;-88
2021/01/19 06:46:43;;;;;;;;;;;;;;;0.31;81.73;98199.44;1625437;86;22405;-89
2021/01/19 06:49:28;;;;;;;;;;;;;;;0.30;81.74;98204.18;1628837;86;26336;-88
2021/01/19 06:52:15;;;;;;;;;;;;;;;0.31;81.74;98207.16;1702310;84;24826;-89
2021/01/19 06:55:01;;;;;;;;;;;;;;;0.31;81.77;98204.58;1680377;84;20566;-89
2021/01/19 06:57:47;;;;;;;;;;;;;;;0.31;81.77;98200.72;1693705;84;24126;-89
2021/01/19 07:00:33;;;;;;;;;;;;;;;0.32;81.78;98202.84;1690654;84;22245;-89
2021/01/19 07:03:19;;;;;;;;;;;;;;;0.30;81.76;98200.31;1696747;84;26100;-89
2021/01/19 07:06:05;;;;;;;;;;;;;;;0.30;81.80;98197.75;1674341;84;24752;-88
2021/01/19 07:08:53;;;;;;;;;;;;;;;0.32;81.79;98200.28;1677188;84;20275;-87
2021/01/19 07:11:39;;;;;;;;;;;;;;;0.29;81.79;98188.34;1676082;84;24850;-88
2021/01/19 07:14:24;;;;;;;;;;;;;;;0.32;81.82;98195.13;1657668;86;22115;-88
2021/01/19 07:17:11;;;;;;;;;;;;;;;0.34;81.80;98195.90;1640775;85;26967;-85
2021/01/19 07:19:57;;;;;;;;;;;;;;;0.35;81.79;98195.86;1652923;86;25490;-87
2021/01/19 07:22:43;;;;;;;;;;;;;;;0.38;81.82;98195.75;1654003;85;20501;-87
2021/01/19 07:25:29;;;;;;;;;;;;;;;0.40;81.82;98195.26;1666457;86;25185;-87
2021/01/19 07:28:15;;;;;;;;;;;;;;;0.46;81.86;98193.38;1650237;85;22129;-87
2021/01/19 07:31:02;;;;;;;;;;;;;;;0.47;81.86;98192.05;1657575;85;26269;-87
2021/01/19 07:33:48;;;;;;;;;;;;;;;0.51;81.86;98192.77;1658513;85;24619;-87
2021/01/19 07:36:35;;;;;;;;;;;;;;;0.54;81.88;98192.69;1634064;86;20625;-88
2021/01/19 07:39:21;;;;;;;;;;;;;;;0.55;81.88;98193.89;1638746;86;25064;-87
2021/01/19 07:42:07;;;;;;;;;;;;;;;0.58;81.91;98196.83;1652248;86;22941;-88
2021/01/19 07:44:54;;;;;;;;;;;;;;;0.58;81.90;98198.96;1636569;86;26499;-89
2021/01/19 07:47:40;;;;;;;;;;;;;;;0.55;81.92;98187.46;1642080;86;24583;-88
2021/01/19 07:50:26;;;;;;;;;;;;;;;0.59;81.95;98195.50;1621232;86;20359;-88
2021/01/19 07:53:12;;;;;;;;;;;;;;;0.62;81.93;98191.97;1622670;86;24987;-88
2021/01/19 07:55:58;;;;;;;;;;;;;;;0.67;81.95;98190.91;1647297;85;22318;-89
2021/01/19 07:58:44;;;;;;;;;;;;;;;0.68;81.95;98195.63;1632988;85;26219;-89
2021/01/19 08:01:30;;;;;;;;;;;;;;;0.69;81.97;98194.29;1656726;85;24811;-88
2021/01/19 08:04:17;;;;;;;;;;;;;;;0.72;81.96;98195.91;1642795;85;20543;-88
2021/01/19 08:07:03;;;;;;;;;;;;;;;0.73;81.97;98187.28;1650985;85;24963;-85
2021/01/19 08:09:49;;;;;;;;;;;;;;;0.75;81.97;98195.37;1647763;85;22959;-85
2021/01/19 08:12:34;;;;;;;;;;;;;;;0.81;81.99;98189.16;1650340;86;26326;-85
2021/01/19 08:15:23;;;;;;;;;;;;;;;0.81;81.98;98186.59;1667345;85;25640;-85
2021/01/19 08:18:09;;;;;;;;;;;;;;;0.86;81.99;98191.13;1625266;86;20288;-88
2021/01/19 08:20:57;;;;;;;;;;;;;;;0.88;81.98;98185.46;1619083;87;25719;-85
2021/01/19 08:23:43;;;;;;;;;;;;;;;0.92;81.99;98187.50;1623259;85;22395;-89
2021/01/19 08:26:34;;;;;;;;;;;;;;;0.91;82.00;98189.23;1632028;86;26122;-88
2021/01/19 08:29:21;;;;;;;;;;;;;;;0.94;81.99;98189.11;1643170;86;24788;-87
2021/01/19 08:32:11;;;;;;;;;;;;;;;0.94;82.00;98192.13;1648479;85;20631;-87
2021/01/19 08:34:57;;;;;;;;;;;;;;;0.95;81.99;98190.80;1679254;83;26128;-87
2021/01/19 08:37:43;;;;;;;;;;;;;;;0.96;81.97;98193.77;1674291;85;22185;-89
2021/01/19 08:40:17;;;;;;;;;;;;;;;1.01;81.96;98189.74;1653605;85;26198;-88
2021/01/19 08:43:03;;;;;;;;;;;;;;;1.02;81.96;98187.56;1662084;85;24515;-86
2021/01/19 08:45:49;;;;;;;;;;;;;;;1.05;81.97;98188.28;1661093;85;20310;-85
2021/01/19 08:48:35;;;;;;;;;;;;;;;1.11;81.97;98187.23;1706109;83;25731;-85
2021/01/19 08:51:21;;;;;;;;;;;;;;;1.15;81.96;98185.77;1700463;83;22317;-85
2021/01/19 08:53:55;;;;;;;;;;;;;;;1.19;81.95;98183.49;1710934;83;27058;-89
2021/01/19 08:56:41;;;;;;;;;;;;;;;1.19;81.95;98175.77;1671257;85;24702;-85
2021/01/19 08:59:27;;;;;;;;;;;;;;;1.26;81.97;98182.35;1666882;85;20385;-88
2021/01/19 09:02:13;;;;;;;;;;;;;;;1.32;81.96;98181.73;1657758;85;24906;-89
2021/01/19 09:04:59;;;;;;;;;;;;;;;1.32;81.96;98189.02;1703328;83;22314;-85
2021/01/19 09:07:45;;;;;;;;;;;;;;;1.36;81.95;98190.61;1704681;82;25842;-85
2021/01/19 09:10:31;;;;;;;;;;;;;;;1.37;81.93;98200.45;1701446;83;24802;-85
2021/01/19 09:13:17;;;;;;;;;;;;;;;1.39;81.94;98206.40;1705806;83;20349;-84
2021/01/19 09:16:02;;;;;;;;;;;;;;;1.41;81.92;98205.91;1709313;83;24888;-88
2021/01/19 09:18:49;;;;;;;;;;;;;;;1.42;81.91;98208.41;1708242;83;22284;-87
2021/01/19 09:21:35;;;;;;;;;;;;;;;1.42;81.90;98214.84;1703783;83;26143;-88
2021/01/19 09:24:21;;;;;;;;;;;;;;;1.41;81.88;98208.48;1692073;83;24674;-86
2021/01/19 09:27:07;;;;;;;;;;;;;;;1.42;81.86;98210.98;1708334;83;20344;-86
2021/01/19 09:29:54;;;;;;;;;;;;;;;1.42;81.85;98213.56;1711308;83;25701;-86
2021/01/19 09:32:42;;;;;;;;;;;;;;;1.45;81.81;98213.91;1702400;83;22315;-87
2021/01/19 09:35:29;;;;;;;;;;;;;;;1.45;81.80;98212.63;1702683;82;26151;-88
2021/01/19 09:38:17;;;;;;;;;;;;;;;1.48;81.79;98206.05;1705747;83;24725;-84
2021/01/19 09:41:05;;;;;;;;;;;;;;;1.52;81.77;98204.61;1705517;83;20364;-87
2021/01/19 09:43:51;;;;;;;;;;;;;;;1.54;81.78;98200.22;1706240;83;25003;-84
2021/01/19 09:55:16;;;;;;;;;;;;;;;1.79;81.73;98181.24;1825645;77;20675;-85
2021/01/19 09:58:03;;;;;;;;;;;;;;;1.79;81.74;98173.51;1808894;78;23003;-88
2021/01/19 10:00:49;;;;;;;;;;;;;;;1.78;81.73;98173.95;1802434;78;26203;-88
2021/01/19 10:03:35;;;;;;;;;;;;;;;1.80;81.70;98159.72;1761029;81;24583;-88
2021/01/19 10:06:21;;;;;;;;;;;;;;;1.81;81.68;98158.79;1753706;81;20258;-88
2021/01/19 10:09:07;;;;;;;;;;;;;;;1.84;81.64;98153.53;1748861;81;24251;-86
2021/01/19 10:11:53;;;;;;;;;;;;;;;1.85;81.61;98153.92;1751504;81;22143;-88
2021/01/19 10:14:39;;;;;;;;;;;;;;;1.91;81.61;98148.05;1753982;81;26128;-84
2021/01/19 10:17:27;;;;;;;;;;;;;;;1.99;81.57;98141.30;1746404;81;24593;-89
2021/01/19 10:20:13;;;;;;;;;;;;;;;2.06;81.54;98137.12;1751673;81;20281;-88
2021/01/19 10:22:59;;;;;;;;;;;;;;;2.11;81.52;98131.78;1742993;81;25228;-89
2021/01/19 10:25:45;;;;;;;;;;;;;;;2.14;81.52;98126.47;1749554;81;21980;-88
2021/01/19 10:28:31;;;;;;;;;;;;;;;2.20;81.48;98129.26;1754988;81;26282;-84
2021/01/19 10:31:22;;;;;;;;;;;;;;;2.22;81.48;98117.14;1745003;81;24655;-83
2021/01/19 10:34:13;;;;;;;;;;;;;;;2.26;81.45;98119.52;1743067;81;20541;-84
2021/01/19 10:36:55;;;;;;;;;;;;;;;2.31;81.40;98112.42;1749987;81;24486;-84
2021/01/19 10:39:42;;;;;;;;;;;;;;;2.41;81.38;98112.87;1749241;81;22133;-88
2021/01/19 10:42:29;;;;;;;;;;;;;;;2.43;81.36;98110.63;1745631;81;26123;-88
2021/01/19 10:45:15;;;;;;;;;;;;;;;2.47;81.31;98105.70;1748778;81;24779;-87
2021/01/19 10:48:02;;;;;;;;;;;;;;;2.50;81.26;98106.05;1749774;81;20224;-87
2021/01/19 10:50:48;;;;;;;;;;;;;;;2.52;81.23;98093.43;1756857;80;24707;-87
2021/01/19 10:53:35;;;;;;;;;;;;;;;2.56;81.18;98097.19;1744971;81;22233;-84
2021/01/19 10:56:21;;;;;;;;;;;;;;;2.58;81.13;98089.75;1726625;82;26982;-88
2021/01/19 10:59:07;;;;;;;;;;;;;;;2.60;81.09;98087.95;1744343;81;24674;-88
2021/01/19 11:01:53;;;;;;;;;;;;;;;2.62;81.04;98083.53;1733709;81;20270;-89
2021/01/19 11:04:42;;;;;;;;;;;;;;;2.62;80.97;98073.68;1725226;81;25564;-89
2021/01/19 11:07:28;;;;;;;;;;;;;;;2.58;80.92;98066.95;1718938;82;22968;-86
2021/01/19 11:10:14;;;;;;;;;;;;;;;2.57;80.86;98069.98;1721098;82;26284;-86
2021/01/19 11:13:01;;;;;;;;;;;;;;;2.62;80.78;98071.91;1718913;81;25627;-84
2021/01/19 11:15:46;;;;;;;;;;;;;;;2.63;80.72;98063.26;1723096;82;20269;-89
2021/01/19 11:18:34;;;;;;;;;;;;;;;2.69;80.67;98067.31;1714781;82;26561;-88
2021/01/19 11:21:20;;;;;;;;;;;;;;;2.67;80.60;98054.49;1705626;83;22069;-88
2021/01/19 11:24:06;;;;;;;;;;;;;;;2.69;80.56;98055.24;1706558;83;26093;-89
2021/01/19 11:26:52;;;;;;;;;;;;;;;2.76;80.47;98045.48;1739744;82;24629;-87
2021/01/19 11:29:43;;;;;;;;;;;;;;;2.79;80.43;98042.75;1710166;83;20309;-87
2021/01/19 11:32:28;;;;;;;;;;;;;;;2.83;80.37;98045.15;1737285;81;24461;-87
2021/01/19 11:35:15;;;;;;;;;;;;;;;2.87;80.34;98041.52;1730978;81;22218;-87
2021/01/19 11:38:01;;;;;;;;;;;;;;;2.87;80.28;98038.92;1704427;83;26142;-87
2021/01/19 11:40:47;;;;;;;;;;;;;;;2.93;80.23;98039.10;1696882;84;24693;-87
2021/01/19 11:43:36;;;;;;;;;;;;;;;3.02;80.18;98030.92;1697207;84;20269;-88
2021/01/19 11:46:22;;;;;;;;;;;;;;;3.04;80.13;98021.81;1742021;82;24563;-87
2021/01/19 11:49:09;;;;;;;;;;;;;;;3.06;80.09;98021.27;1706159;83;22479;-87
2021/01/19 11:51:55;;;;;;;;;;;;;;;3.08;80.03;98016.88;1742933;81;26120;-87
2021/01/19 11:54:41;;;;;;;;;;;;;;;3.11;79.96;98011.58;1740904;82;24615;-88
2021/01/19 11:57:27;;;;;;;;;;;;;;;3.15;79.90;98009.22;1743882;81;20267;-88
2021/01/19 12:00:15;;;;;;;;;;;;;;;3.12;79.83;98000.30;1740561;81;25990;-89
2021/01/19 12:03:01;;;;;;;;;;;;;;;3.07;79.78;97996.64;1742005;81;22178;-88
2021/01/19 12:05:47;;;;;;;;;;;;;;;3.04;79.71;97992.09;1709942;82;26129;-87
2021/01/19 12:08:33;;;;;;;;;;;;;;;3.00;79.64;97988.78;1728964;82;24503;-85
2021/01/19 12:11:19;;;;;;;;;;;;;;;3.05;79.56;97982.13;1713561;82;20660;-85
2021/01/19 12:14:05;;;;;;;;;;;;;;;3.04;79.50;97974.83;1719371;82;25720;-88
2021/01/19 12:16:52;;;;;;;;;;;;;;;3.11;79.43;97968.92;1728792;82;22148;-87
2021/01/19 12:19:39;;;;;;;;;;;;;;;3.16;79.38;97962.62;1726077;82;26512;-87
2021/01/19 12:22:25;;;;;;;;;;;;;;;3.18;79.32;97958.20;1727555;82;24620;-87
2021/01/19 12:25:11;;;;;;;;;;;;;;;3.21;79.28;97952.06;1722633;82;20371;-84
2021/01/19 12:27:59;;;;;;;;;;;;;;;3.21;79.22;97947.73;1726953;82;24526;-84
2021/01/19 12:30:44;;;;;;;;;;;;;;;3.15;79.20;97943.30;1718288;82;22962;-85
2021/01/19 12:33:30;;;;;;;;;;;;;;;3.11;79.14;97943.07;1720305;82;27579;-84
2021/01/19 12:36:17;;;;;;;;;;;;;;;3.07;79.08;97932.02;1744290;81;24789;-84
2021/01/19 12:39:03;;;;;;;;;;;;;;;3.07;79.01;97932.02;1740885;81;20313;-88
2021/01/19 12:41:50;;;;;;;;;;;;;;;3.03;78.95;97924.48;1740618;81;24437;-88
2021/01/19 12:44:41;;;;;;;;;;;;;;;3.02;78.88;97926.69;1753181;81;23153;-88
2021/01/19 12:47:27;;;;;;;;;;;;;;;2.98;78.81;97922.13;1732677;82;25389;-87
2021/01/19 12:50:14;;;;;;;;;;;;;;;2.95;78.77;97911.92;1747202;81;24665;-88
2021/01/19 12:53:00;;;;;;;;;;;;;;;2.94;78.71;97912.41;1741684;81;20544;-87
2021/01/19 12:55:47;;;;;;;;;;;;;;;2.92;78.65;97906.46;1737088;82;24484;-87
2021/01/19 12:58:32;;;;;;;;;;;;;;;2.91;78.62;97907.81;1736956;81;21525;-87
2021/01/19 13:01:19;;;;;;;;;;;;;;;2.93;78.57;97900.84;1745272;81;26079;-88
2021/01/19 13:04:05;;;;;;;;;;;;;;;2.89;78.52;97898.84;1746712;81;25466;-88
2021/01/19 13:06:51;;;;;;;;;;;;;;;2.86;78.45;97896.41;1740147;81;20385;-88
2021/01/19 13:09:37;;;;;;;;;;;;;;;2.82;78.40;97893.60;1740464;81;24486;-85
2021/01/19 13:12:24;;;;;;;;;;;;;;;2.81;78.35;97897.09;1744513;81;22138;-85
2021/01/19 13:15:10;;;;;;;;;;;;;;;2.81;78.29;97897.54;1738305;82;26063;-85
2021/01/19 13:17:56;;;;;;;;;;;;;;;2.83;78.26;97892.70;1740601;81;24632;-85
2021/01/19 13:20:42;;;;;;;;;;;;;;;2.81;78.20;97898.83;1740836;81;20264;-85
2021/01/19 13:23:33;;;;;;;;;;;;;;;2.79;78.15;97896.77;1745727;81;23828;-85
2021/01/19 13:26:22;;;;;;;;;;;;;;;2.76;78.12;97895.17;1741917;81;22987;-85
2021/01/19 13:29:14;;;;;;;;;;;;;;;2.74;78.04;97896.98;1751850;81;26121;-89
2021/01/19 13:32:00;;;;;;;;;;;;;;;2.73;77.98;97886.72;1745349;81;24579;-88
2021/01/19 13:34:46;;;;;;;;;;;;;;;2.66;77.93;97886.64;1741549;82;20203;-89
2021/01/19 13:37:32;;;;;;;;;;;;;;;2.60;77.86;97881.31;1717987;82;24478;-88
2021/01/19 13:40:20;;;;;;;;;;;;;;;2.64;77.80;97878.95;1701341;83;22439;-88
2021/01/19 13:43:05;;;;;;;;;;;;;;;2.63;77.75;97873.85;1794662;79;26134;-88
2021/01/19 13:45:52;;;;;;;;;;;;;;;2.53;77.73;97873.45;1789571;79;24620;-88
2021/01/19 13:48:38;;;;;;;;;;;;;;;2.53;77.67;97865.25;1740635;81;20420;-89
2021/01/19 13:51:25;;;;;;;;;;;;;;;2.51;77.62;97867.06;1785223;79;24570;-89
2021/01/19 13:54:12;;;;;;;;;;;;;;;2.50;77.57;97865.86;1789203;79;22153;-89
2021/01/19 13:57:00;;;;;;;;;;;;;;;2.44;77.53;97864.41;1786039;79;26126;-89
2021/01/19 13:59:45;;;;;;;;;;;;;;;2.46;77.48;97860.44;1787094;79;24610;-88
2021/01/19 14:02:32;;;;;;;;;;;;;;;2.42;77.44;97861.49;1788833;79;20198;-88
2021/01/19 14:05:20;;;;;;;;;;;;;;;2.37;77.38;97863.00;1788523;79;24483;-88
2021/01/19 14:08:11;;;;;;;;;;;;;;;2.35;77.36;97856.22;1791872;79;22155;-88
2021/01/19 14:10:55;;;;;;;;;;;;;;;2.34;77.31;97856.70;1789443;79;26295;-88
2021/01/19 14:13:44;;;;;;;;;;;;;;;2.37;77.26;97854.42;1785704;79;24530;-90
2021/01/19 14:16:31;;;;;;;;;;;;;;;2.34;77.22;97848.12;1748570;81;20568;-89
2021/01/19 14:19:17;;;;;;;;;;;;;;;2.33;77.18;97853.73;1713852;82;24529;-89
2021/01/19 14:22:03;;;;;;;;;;;;;;;2.27;77.16;97851.43;1747445;81;23662;-89
2021/01/19 14:24:51;;;;;;;;;;;;;;;2.22;77.13;97859.00;1716880;82;26309;-89
2021/01/19 14:27:38;;;;;;;;;;;;;;;2.18;77.08;97853.60;1731989;82;24630;-88
2021/01/19 14:30:25;;;;;;;;;;;;;;;2.06;77.06;97847.25;1794060;78;20270;-88
2021/01/19 14:33:11;;;;;;;;;;;;;;;2.01;77.01;97851.33;1785789;79;25618;-87
2021/01/19 14:35:57;;;;;;;;;;;;;;;2.02;76.96;97849.11;1790999;79;22989;-87
2021/01/19 14:38:43;;;;;;;;;;;;;;;1.95;76.93;97854.19;1742148;81;26411;-87
2021/01/19 14:41:29;;;;;;;;;;;;;;;1.89;76.90;97850.58;1792631;79;25598;-86